Impacts TAF Board
For situational awareness. Not to be used for flight planning purposes.
IDs:

KGEG - Spokane Intl, WA, US

Issued at 0520 UTC 16 Jul 2019
Updated at 1001 UTC 16 Jul 2019
Potential Impact None Slight Moderate High
Time0953Z 16/10Z 16/11Z 16/12Z 16/13Z 16/14Z 16/15Z 16/16Z 16/17Z 16/18Z 16/19Z 16/20Z 16/21Z 16/22Z>>
Type OBS PRVL PRVL PRVL PRVL PRVL PRVL PRVL PRVL PRVL PRVL PRVL PRVL PRVL
VIS 10 >6 >6 >6 >6 >6 >6 >6 >6 >6 >6 >6 >6 >6
CIG 95 100 100 80 80 80 80 80 80 90 90 90 90 90
Cover BKN BKN BKN BKN BKN BKN BKN BKN BKN BKN BKN BKN BKN BKN
FltCat VFR VFR VFR VFR VFR VFR VFR VFR VFR VFR VFR VFR VFR VFR
WX -- -- -- VCSH VCSH VCSH VCSH VCSH VCSH VCSH VCSH VCSH VCSH VCSH
WDir 140 190 190 170 170 170 170 170 170 200 200 200 200 200
WSpd 4 5 5 5 5 5 5 5 5 9 9 9 9 9
WGst -- -- -- -- -- -- -- -- -- -- -- -- -- --
Raw TAF
KGEG 160520Z 1606/1706 19005KT P6SM SCT050 BKN100
  FM161200 17005KT P6SM VCSH SCT040 BKN080
  FM161800 20009KT P6SM VCSH SCT050 BKN090
  FM170000 23008KT P6SM SCT060 SCT100


Raw METAR
KGEG 160953Z 14004KT 10SM FEW080 BKN095 BKN110 16/08 A2999 RMK AO2 SLP144 T01560083
KGEG 160853Z 15005KT 10SM BKN075 BKN090 17/08 A2999 RMK AO2 SLP145 T01670083 58003
KGEG 160753Z 14004KT 10SM BKN075 BKN090 17/08 A3000 RMK AO2 SLP148 T01670083 402170144
KGEG 160653Z 16004KT 10SM FEW065 BKN085 18/08 A3000 RMK AO2 SLP148 T01780078

METAR Board
Radar Display
Forecast Discussion
For situational awareness. Not to be used for flight planning purposes.